sensor_id;sensor_type;location;lat;lon;timestamp;P1;durP1;ratioP1;P2;durP2;ratioP2
70667;SDS011;58242;51.250;-1.118;2022-07-23T00:01:57;5.40;;;4.90;;
70667;SDS011;58242;51.250;-1.118;2022-07-23T00:04:23;5.90;;;5.40;;
70667;SDS011;58242;51.250;-1.118;2022-07-23T00:06:48;6.43;;;5.57;;
70667;SDS011;58242;51.250;-1.118;2022-07-23T00:09:14;6.82;;;5.88;;
70667;SDS011;58242;51.250;-1.118;2022-07-23T00:11:39;6.57;;;5.97;;
70667;SDS011;58242;51.250;-1.118;2022-07-23T00:14:04;5.63;;;5.13;;
70667;SDS011;58242;51.250;-1.118;2022-07-23T00:16:30;7.68;;;5.03;;
70667;SDS011;58242;51.250;-1.118;2022-07-23T00:18:55;6.18;;;5.60;;
70667;SDS011;58242;51.250;-1.118;2022-07-23T00:21:21;6.10;;;5.40;;
70667;SDS011;58242;51.250;-1.118;2022-07-23T00:23:46;6.47;;;5.85;;
70667;SDS011;58242;51.250;-1.118;2022-07-23T00:26:11;8.82;;;5.78;;
70667;SDS011;58242;51.250;-1.118;2022-07-23T00:28:37;9.07;;;6.55;;
70667;SDS011;58242;51.250;-1.118;2022-07-23T00:31:02;6.32;;;5.22;;
70667;SDS011;58242;51.250;-1.118;2022-07-23T00:33:27;6.97;;;5.97;;
70667;SDS011;58242;51.250;-1.118;2022-07-23T00:35:53;5.40;;;4.90;;
70667;SDS011;58242;51.250;-1.118;2022-07-23T00:38:18;6.13;;;5.63;;
70667;SDS011;58242;51.250;-1.118;2022-07-23T00:40:44;7.05;;;5.80;;
70667;SDS011;58242;51.250;-1.118;2022-07-23T00:43:09;5.25;;;4.75;;
70667;SDS011;58242;51.250;-1.118;2022-07-23T00:45:34;5.57;;;4.95;;
70667;SDS011;58242;51.250;-1.118;2022-07-23T00:48:00;6.07;;;5.45;;
70667;SDS011;58242;51.250;-1.118;2022-07-23T00:50:26;6.53;;;5.90;;
70667;SDS011;58242;51.250;-1.118;2022-07-23T00:52:52;6.30;;;5.50;;
70667;SDS011;58242;51.250;-1.118;2022-07-23T00:55:18;6.47;;;5.88;;
70667;SDS011;58242;51.250;-1.118;2022-07-23T00:57:43;7.70;;;7.00;;
70667;SDS011;58242;51.250;-1.118;2022-07-23T01:00:10;6.22;;;5.72;;
70667;SDS011;58242;51.250;-1.118;2022-07-23T01:02:37;6.00;;;5.50;;
70667;SDS011;58242;51.250;-1.118;2022-07-23T01:05:03;7.40;;;6.45;;
70667;SDS011;58242;51.250;-1.118;2022-07-23T01:07:29;7.05;;;5.65;;
70667;SDS011;58242;51.250;-1.118;2022-07-23T01:09:55;6.78;;;6.07;;
70667;SDS011;58242;51.250;-1.118;2022-07-23T01:12:21;6.07;;;5.57;;
70667;SDS011;58242;51.250;-1.118;2022-07-23T01:14:56;6.28;;;5.68;;
70667;SDS011;58242;51.250;-1.118;2022-07-23T01:17:23;6.00;;;5.50;;
70667;SDS011;58242;51.250;-1.118;2022-07-23T01:19:49;6.25;;;5.68;;
70667;SDS011;58242;51.250;-1.118;2022-07-23T01:22:15;8.63;;;5.88;;
70667;SDS011;58242;51.250;-1.118;2022-07-23T01:24:43;6.43;;;5.45;;
70667;SDS011;58242;51.250;-1.118;2022-07-23T01:27:08;6.57;;;5.57;;
70667;SDS011;58242;51.250;-1.118;2022-07-23T01:29:34;6.97;;;5.05;;
70667;SDS011;58242;51.250;-1.118;2022-07-23T01:31:59;6.32;;;5.00;;
70667;SDS011;58242;51.250;-1.118;2022-07-23T01:34:25;4.95;;;4.35;;
70667;SDS011;58242;51.250;-1.118;2022-07-23T01:36:50;4.18;;;3.40;;
70667;SDS011;58242;51.250;-1.118;2022-07-23T01:39:15;5.65;;;3.58;;
70667;SDS011;58242;51.250;-1.118;2022-07-23T01:41:41;4.18;;;3.30;;
70667;SDS011;58242;51.250;-1.118;2022-07-23T01:44:06;2.90;;;2.70;;
70667;SDS011;58242;51.250;-1.118;2022-07-23T01:46:31;5.60;;;3.05;;
70667;SDS011;58242;51.250;-1.118;2022-07-23T01:48:57;4.22;;;3.08;;
70667;SDS011;58242;51.250;-1.118;2022-07-23T01:51:22;5.00;;;3.03;;
70667;SDS011;58242;51.250;-1.118;2022-07-23T01:53:48;4.97;;;3.60;;
70667;SDS011;58242;51.250;-1.118;2022-07-23T01:56:13;4.38;;;3.10;;
70667;SDS011;58242;51.250;-1.118;2022-07-23T01:58:40;5.00;;;3.28;;
70667;SDS011;58242;51.250;-1.118;2022-07-23T02:01:05;4.45;;;2.90;;
70667;SDS011;58242;51.250;-1.118;2022-07-23T02:03:31;3.30;;;3.00;;
70667;SDS011;58242;51.250;-1.118;2022-07-23T02:05:56;2.60;;;2.40;;
70667;SDS011;58242;51.250;-1.118;2022-07-23T02:08:21;5.70;;;2.65;;
70667;SDS011;58242;51.250;-1.118;2022-07-23T02:10:47;2.88;;;2.63;;
70667;SDS011;58242;51.250;-1.118;2022-07-23T02:13:13;2.53;;;2.30;;
70667;SDS011;58242;51.250;-1.118;2022-07-23T02:15:39;3.97;;;2.75;;
70667;SDS011;58242;51.250;-1.118;2022-07-23T02:18:04;7.95;;;3.60;;
70667;SDS011;58242;51.250;-1.118;2022-07-23T02:20:29;3.28;;;2.90;;
70667;SDS011;58242;51.250;-1.118;2022-07-23T02:22:55;4.70;;;2.80;;
70667;SDS011;58242;51.250;-1.118;2022-07-23T02:25:20;4.13;;;2.70;;
70667;SDS011;58242;51.250;-1.118;2022-07-23T02:27:46;2.63;;;2.10;;
70667;SDS011;58242;51.250;-1.118;2022-07-23T02:30:11;2.35;;;2.25;;
70667;SDS011;58242;51.250;-1.118;2022-07-23T02:32:37;3.63;;;2.50;;
70667;SDS011;58242;51.250;-1.118;2022-07-23T02:35:03;2.85;;;2.53;;
70667;SDS011;58242;51.250;-1.118;2022-07-23T02:37:28;2.70;;;2.35;;
70667;SDS011;58242;51.250;-1.118;2022-07-23T02:39:54;2.92;;;2.55;;
70667;SDS011;58242;51.250;-1.118;2022-07-23T02:42:20;2.78;;;2.58;;
70667;SDS011;58242;51.250;-1.118;2022-07-23T02:44:46;3.53;;;2.80;;
70667;SDS011;58242;51.250;-1.118;2022-07-23T02:47:11;4.63;;;3.10;;
70667;SDS011;58242;51.250;-1.118;2022-07-23T02:49:36;2.38;;;2.28;;
70667;SDS011;58242;51.250;-1.118;2022-07-23T02:52:02;2.90;;;2.70;;
70667;SDS011;58242;51.250;-1.118;2022-07-23T02:54:27;6.03;;;2.97;;
70667;SDS011;58242;51.250;-1.118;2022-07-23T02:56:53;3.80;;;2.38;;
70667;SDS011;58242;51.250;-1.118;2022-07-23T02:59:18;6.15;;;2.95;;
70667;SDS011;58242;51.250;-1.118;2022-07-23T03:01:44;4.75;;;2.78;;
70667;SDS011;58242;51.250;-1.118;2022-07-23T03:04:10;3.42;;;3.03;;
70667;SDS011;58242;51.250;-1.118;2022-07-23T03:06:35;3.25;;;2.65;;
70667;SDS011;58242;51.250;-1.118;2022-07-23T03:09:01;7.15;;;3.13;;
70667;SDS011;58242;51.250;-1.118;2022-07-23T03:11:27;4.07;;;2.85;;
70667;SDS011;58242;51.250;-1.118;2022-07-23T03:13:52;3.58;;;3.00;;
70667;SDS011;58242;51.250;-1.118;2022-07-23T03:16:17;4.78;;;3.22;;
70667;SDS011;58242;51.250;-1.118;2022-07-23T03:18:43;6.47;;;3.05;;
70667;SDS011;58242;51.250;-1.118;2022-07-23T03:21:08;2.78;;;2.58;;
70667;SDS011;58242;51.250;-1.118;2022-07-23T03:23:33;4.38;;;3.25;;
70667;SDS011;58242;51.250;-1.118;2022-07-23T03:25:59;3.70;;;2.63;;
70667;SDS011;58242;51.250;-1.118;2022-07-23T03:28:24;2.65;;;2.38;;
70667;SDS011;58242;51.250;-1.118;2022-07-23T03:30:50;3.20;;;2.60;;
70667;SDS011;58242;51.250;-1.118;2022-07-23T03:33:16;4.82;;;3.17;;
70667;SDS011;58242;51.250;-1.118;2022-07-23T03:35:43;5.97;;;3.13;;
70667;SDS011;58242;51.250;-1.118;2022-07-23T03:38:08;6.97;;;3.60;;
70667;SDS011;58242;51.250;-1.118;2022-07-23T03:40:34;5.65;;;3.30;;
70667;SDS011;58242;51.250;-1.118;2022-07-23T03:42:59;4.75;;;3.15;;
70667;SDS011;58242;51.250;-1.118;2022-07-23T03:45:25;6.85;;;3.55;;
70667;SDS011;58242;51.250;-1.118;2022-07-23T03:47:50;3.25;;;2.78;;
70667;SDS011;58242;51.250;-1.118;2022-07-23T03:50:15;6.70;;;3.80;;
70667;SDS011;58242;51.250;-1.118;2022-07-23T03:52:41;6.22;;;3.25;;
70667;SDS011;58242;51.250;-1.118;2022-07-23T03:55:06;3.65;;;3.30;;
70667;SDS011;58242;51.250;-1.118;2022-07-23T03:57:32;4.07;;;3.35;;
70667;SDS011;58242;51.250;-1.118;2022-07-23T03:59:57;3.08;;;2.78;;
70667;SDS011;58242;51.250;-1.118;2022-07-23T04:02:23;4.20;;;2.95;;
70667;SDS011;58242;51.250;-1.118;2022-07-23T04:04:48;5.90;;;2.92;;
70667;SDS011;58242;51.250;-1.118;2022-07-23T04:07:14;4.35;;;2.78;;
70667;SDS011;58242;51.250;-1.118;2022-07-23T04:09:39;3.28;;;2.97;;
70667;SDS011;58242;51.250;-1.118;2022-07-23T04:12:05;3.78;;;2.60;;
70667;SDS011;58242;51.250;-1.118;2022-07-23T04:14:32;3.28;;;2.75;;
70667;SDS011;58242;51.250;-1.118;2022-07-23T04:16:57;4.07;;;2.90;;
70667;SDS011;58242;51.250;-1.118;2022-07-23T04:19:23;5.30;;;3.22;;
70667;SDS011;58242;51.250;-1.118;2022-07-23T04:21:48;5.40;;;2.85;;
70667;SDS011;58242;51.250;-1.118;2022-07-23T04:24:14;3.30;;;3.00;;
70667;SDS011;58242;51.250;-1.118;2022-07-23T04:26:39;5.40;;;3.30;;
70667;SDS011;58242;51.250;-1.118;2022-07-23T04:29:04;3.50;;;3.05;;
70667;SDS011;58242;51.250;-1.118;2022-07-23T04:31:30;5.72;;;2.95;;
70667;SDS011;58242;51.250;-1.118;2022-07-23T04:33:55;3.28;;;2.58;;
70667;SDS011;58242;51.250;-1.118;2022-07-23T04:36:21;2.50;;;2.30;;
70667;SDS011;58242;51.250;-1.118;2022-07-23T04:38:46;3.47;;;2.60;;
70667;SDS011;58242;51.250;-1.118;2022-07-23T04:41:11;3.75;;;2.60;;
70667;SDS011;58242;51.250;-1.118;2022-07-23T04:43:37;4.68;;;3.00;;
70667;SDS011;58242;51.250;-1.118;2022-07-23T04:46:02;2.88;;;2.50;;
70667;SDS011;58242;51.250;-1.118;2022-07-23T04:48:27;3.33;;;2.85;;
70667;SDS011;58242;51.250;-1.118;2022-07-23T04:50:53;5.28;;;2.50;;
70667;SDS011;58242;51.250;-1.118;2022-07-23T04:53:18;2.38;;;2.20;;
70667;SDS011;58242;51.250;-1.118;2022-07-23T04:55:44;7.20;;;3.10;;
70667;SDS011;58242;51.250;-1.118;2022-07-23T04:58:10;7.95;;;3.80;;
70667;SDS011;58242;51.250;-1.118;2022-07-23T05:00:35;3.92;;;2.97;;
70667;SDS011;58242;51.250;-1.118;2022-07-23T05:03:01;4.30;;;2.45;;
70667;SDS011;58242;51.250;-1.118;2022-07-23T05:05:26;5.50;;;2.53;;
70667;SDS011;58242;51.250;-1.118;2022-07-23T05:07:52;4.68;;;2.70;;
70667;SDS011;58242;51.250;-1.118;2022-07-23T05:10:17;4.53;;;2.92;;
70667;SDS011;58242;51.250;-1.118;2022-07-23T05:12:42;5.45;;;2.30;;
70667;SDS011;58242;51.250;-1.118;2022-07-23T05:15:08;3.35;;;2.13;;
70667;SDS011;58242;51.250;-1.118;2022-07-23T05:17:33;4.10;;;2.45;;
70667;SDS011;58242;51.250;-1.118;2022-07-23T05:19:59;4.20;;;2.15;;
70667;SDS011;58242;51.250;-1.118;2022-07-23T05:22:24;3.10;;;2.28;;
70667;SDS011;58242;51.250;-1.118;2022-07-23T05:24:49;2.85;;;2.50;;
70667;SDS011;58242;51.250;-1.118;2022-07-23T05:27:15;4.40;;;2.30;;
70667;SDS011;58242;51.250;-1.118;2022-07-23T05:29:40;2.60;;;2.25;;
70667;SDS011;58242;51.250;-1.118;2022-07-23T05:32:05;4.88;;;2.58;;
70667;SDS011;58242;51.250;-1.118;2022-07-23T05:34:31;2.72;;;2.30;;
70667;SDS011;58242;51.250;-1.118;2022-07-23T05:36:56;2.40;;;2.20;;
70667;SDS011;58242;51.250;-1.118;2022-07-23T05:39:21;3.33;;;2.22;;
70667;SDS011;58242;51.250;-1.118;2022-07-23T05:41:47;3.30;;;2.10;;
70667;SDS011;58242;51.250;-1.118;2022-07-23T05:44:12;3.95;;;2.15;;
70667;SDS011;58242;51.250;-1.118;2022-07-23T05:46:37;2.58;;;2.15;;
70667;SDS011;58242;51.250;-1.118;2022-07-23T05:49:03;3.50;;;2.38;;
70667;SDS011;58242;51.250;-1.118;2022-07-23T05:51:29;2.67;;;2.35;;
70667;SDS011;58242;51.250;-1.118;2022-07-23T05:53:54;3.90;;;2.75;;
70667;SDS011;58242;51.250;-1.118;2022-07-23T05:56:19;2.92;;;2.25;;
70667;SDS011;58242;51.250;-1.118;2022-07-23T05:58:45;2.97;;;2.00;;
70667;SDS011;58242;51.250;-1.118;2022-07-23T06:01:10;5.15;;;2.30;;
70667;SDS011;58242;51.250;-1.118;2022-07-23T06:03:37;4.30;;;2.42;;
70667;SDS011;58242;51.250;-1.118;2022-07-23T06:06:03;3.58;;;2.60;;
70667;SDS011;58242;51.250;-1.118;2022-07-23T06:08:28;5.20;;;3.08;;
70667;SDS011;58242;51.250;-1.118;2022-07-23T06:10:54;3.25;;;2.22;;
70667;SDS011;58242;51.250;-1.118;2022-07-23T06:13:19;4.53;;;2.70;;
70667;SDS011;58242;51.250;-1.118;2022-07-23T06:15:44;2.33;;;2.10;;
70667;SDS011;58242;51.250;-1.118;2022-07-23T06:18:10;4.80;;;2.25;;
70667;SDS011;58242;51.250;-1.118;2022-07-23T06:20:35;5.78;;;2.38;;
70667;SDS011;58242;51.250;-1.118;2022-07-23T06:23:01;2.80;;;1.98;;
70667;SDS011;58242;51.250;-1.118;2022-07-23T06:25:26;2.53;;;2.00;;
70667;SDS011;58242;51.250;-1.118;2022-07-23T06:27:51;3.25;;;2.47;;
70667;SDS011;58242;51.250;-1.118;2022-07-23T06:30:17;5.68;;;2.80;;
70667;SDS011;58242;51.250;-1.118;2022-07-23T06:32:44;5.28;;;2.78;;
70667;SDS011;58242;51.250;-1.118;2022-07-23T06:35:10;6.32;;;2.30;;
70667;SDS011;58242;51.250;-1.118;2022-07-23T06:37:35;3.10;;;2.08;;
70667;SDS011;58242;51.250;-1.118;2022-07-23T06:40:01;4.18;;;2.78;;
70667;SDS011;58242;51.250;-1.118;2022-07-23T06:42:27;4.95;;;2.53;;
70667;SDS011;58242;51.250;-1.118;2022-07-23T06:44:53;3.67;;;2.25;;
70667;SDS011;58242;51.250;-1.118;2022-07-23T06:47:18;3.20;;;2.40;;
70667;SDS011;58242;51.250;-1.118;2022-07-23T06:49:43;5.28;;;2.40;;
70667;SDS011;58242;51.250;-1.118;2022-07-23T06:52:09;6.03;;;3.03;;
70667;SDS011;58242;51.250;-1.118;2022-07-23T06:54:34;2.67;;;2.47;;
70667;SDS011;58242;51.250;-1.118;2022-07-23T06:57:00;5.57;;;2.15;;
70667;SDS011;58242;51.250;-1.118;2022-07-23T06:59:25;2.50;;;2.30;;
70667;SDS011;58242;51.250;-1.118;2022-07-23T07:01:50;5.60;;;2.30;;
70667;SDS011;58242;51.250;-1.118;2022-07-23T07:04:16;4.10;;;3.00;;
70667;SDS011;58242;51.250;-1.118;2022-07-23T07:06:41;5.15;;;2.70;;
70667;SDS011;58242;51.250;-1.118;2022-07-23T07:09:07;2.58;;;2.38;;
70667;SDS011;58242;51.250;-1.118;2022-07-23T07:11:32;6.18;;;3.13;;
70667;SDS011;58242;51.250;-1.118;2022-07-23T07:13:57;4.03;;;3.72;;
70667;SDS011;58242;51.250;-1.118;2022-07-23T07:16:23;4.85;;;3.08;;
70667;SDS011;58242;51.250;-1.118;2022-07-23T07:18:48;7.15;;;4.40;;
70667;SDS011;58242;51.250;-1.118;2022-07-23T07:21:13;6.47;;;3.83;;
70667;SDS011;58242;51.250;-1.118;2022-07-23T07:23:39;3.10;;;2.80;;
70667;SDS011;58242;51.250;-1.118;2022-07-23T07:26:04;4.18;;;3.25;;
70667;SDS011;58242;51.250;-1.118;2022-07-23T07:28:30;3.15;;;2.85;;
70667;SDS011;58242;51.250;-1.118;2022-07-23T07:30:55;5.85;;;3.60;;
70667;SDS011;58242;51.250;-1.118;2022-07-23T07:33:20;4.03;;;2.95;;
70667;SDS011;58242;51.250;-1.118;2022-07-23T07:35:46;4.03;;;3.00;;
70667;SDS011;58242;51.250;-1.118;2022-07-23T07:38:12;5.15;;;3.20;;
70667;SDS011;58242;51.250;-1.118;2022-07-23T07:40:37;4.07;;;2.70;;
70667;SDS011;58242;51.250;-1.118;2022-07-23T07:43:03;3.30;;;2.33;;
70667;SDS011;58242;51.250;-1.118;2022-07-23T07:45:28;3.40;;;3.10;;
70667;SDS011;58242;51.250;-1.118;2022-07-23T07:47:54;3.53;;;2.28;;
70667;SDS011;58242;51.250;-1.118;2022-07-23T07:50:20;2.55;;;2.35;;
70667;SDS011;58242;51.250;-1.118;2022-07-23T07:52:45;6.53;;;3.08;;
70667;SDS011;58242;51.250;-1.118;2022-07-23T07:55:11;6.32;;;2.78;;
70667;SDS011;58242;51.250;-1.118;2022-07-23T07:57:36;2.38;;;2.17;;
70667;SDS011;58242;51.250;-1.118;2022-07-23T08:00:05;3.95;;;2.35;;
70667;SDS011;58242;51.250;-1.118;2022-07-23T08:02:48;3.47;;;2.33;;
70667;SDS011;58242;51.250;-1.118;2022-07-23T08:05:18;3.40;;;3.00;;
70667;SDS011;58242;51.250;-1.118;2022-07-23T08:07:47;2.88;;;2.58;;
70667;SDS011;58242;51.250;-1.118;2022-07-23T08:10:13;2.58;;;2.38;;
70667;SDS011;58242;51.250;-1.118;2022-07-23T08:15:04;2.20;;;2.00;;
70667;SDS011;58242;51.250;-1.118;2022-07-23T08:17:30;2.83;;;2.20;;
70667;SDS011;58242;51.250;-1.118;2022-07-23T08:19:55;7.35;;;2.40;;
70667;SDS011;58242;51.250;-1.118;2022-07-23T08:22:21;2.85;;;2.65;;
70667;SDS011;58242;51.250;-1.118;2022-07-23T08:24:46;2.08;;;1.80;;
70667;SDS011;58242;51.250;-1.118;2022-07-23T08:27:12;4.90;;;2.65;;
70667;SDS011;58242;51.250;-1.118;2022-07-23T08:29:37;2.97;;;2.10;;
70667;SDS011;58242;51.250;-1.118;2022-07-23T08:32:02;3.65;;;2.03;;
70667;SDS011;58242;51.250;-1.118;2022-07-23T08:34:28;2.63;;;1.90;;
70667;SDS011;58242;51.250;-1.118;2022-07-23T08:36:53;3.13;;;1.50;;
70667;SDS011;58242;51.250;-1.118;2022-07-23T08:39:19;2.40;;;1.80;;
70667;SDS011;58242;51.250;-1.118;2022-07-23T08:41:44;2.65;;;2.00;;
70667;SDS011;58242;51.250;-1.118;2022-07-23T08:44:09;1.80;;;1.70;;
70667;SDS011;58242;51.250;-1.118;2022-07-23T08:46:35;1.95;;;1.85;;
70667;SDS011;58242;51.250;-1.118;2022-07-23T08:49:01;2.33;;;2.08;;
70667;SDS011;58242;51.250;-1.118;2022-07-23T08:51:26;4.18;;;1.75;;
70667;SDS011;58242;51.250;-1.118;2022-07-23T08:53:52;3.05;;;2.00;;
70667;SDS011;58242;51.250;-1.118;2022-07-23T08:56:18;2.55;;;2.30;;
70667;SDS011;58242;51.250;-1.118;2022-07-23T08:58:43;1.60;;;1.50;;
70667;SDS011;58242;51.250;-1.118;2022-07-23T09:01:08;1.95;;;1.42;;
70667;SDS011;58242;51.250;-1.118;2022-07-23T09:03:35;1.63;;;1.38;;
70667;SDS011;58242;51.250;-1.118;2022-07-23T09:06:03;2.30;;;1.85;;
70667;SDS011;58242;51.250;-1.118;2022-07-23T09:08:38;1.63;;;1.40;;
70667;SDS011;58242;51.250;-1.118;2022-07-23T09:11:06;2.20;;;1.48;;
70667;SDS011;58242;51.250;-1.118;2022-07-23T09:13:50;1.30;;;1.20;;
70667;SDS011;58242;51.250;-1.118;2022-07-23T09:16:24;1.95;;;1.33;;
70667;SDS011;58242;51.250;-1.118;2022-07-23T09:21:17;1.42;;;1.25;;
70667;SDS011;58242;51.250;-1.118;2022-07-23T09:31:32;1.30;;;1.20;;
70667;SDS011;58242;51.250;-1.118;2022-07-23T09:34:09;1.20;;;1.10;;
70667;SDS011;58242;51.250;-1.118;2022-07-23T09:36:37;2.15;;;1.20;;
70667;SDS011;58242;51.250;-1.118;2022-07-23T09:39:03;3.15;;;1.20;;
70667;SDS011;58242;51.250;-1.118;2022-07-23T09:41:36;1.40;;;1.30;;
70667;SDS011;58242;51.250;-1.118;2022-07-23T09:44:21;2.17;;;1.30;;
70667;SDS011;58242;51.250;-1.118;2022-07-23T09:46:48;1.15;;;1.10;;
70667;SDS011;58242;51.250;-1.118;2022-07-23T09:51:49;1.30;;;1.20;;
70667;SDS011;58242;51.250;-1.118;2022-07-23T09:54:36;1.02;;;0.90;;
70667;SDS011;58242;51.250;-1.118;2022-07-23T09:57:11;1.25;;;0.98;;
70667;SDS011;58242;51.250;-1.118;2022-07-23T09:59:40;1.13;;;0.98;;
70667;SDS011;58242;51.250;-1.118;2022-07-23T10:02:07;1.27;;;1.17;;
70667;SDS011;58242;51.250;-1.118;2022-07-23T10:04:34;1.77;;;1.10;;
70667;SDS011;58242;51.250;-1.118;2022-07-23T10:07:00;1.15;;;1.05;;
70667;SDS011;58242;51.250;-1.118;2022-07-23T10:09:35;1.17;;;1.08;;
70667;SDS011;58242;51.250;-1.118;2022-07-23T10:12:03;1.52;;;1.10;;
70667;SDS011;58242;51.250;-1.118;2022-07-23T10:14:45;0.98;;;0.98;;
70667;SDS011;58242;51.250;-1.118;2022-07-23T10:17:11;1.15;;;1.08;;
70667;SDS011;58242;51.250;-1.118;2022-07-23T10:19:37;1.45;;;1.20;;
70667;SDS011;58242;51.250;-1.118;2022-07-23T10:22:03;1.58;;;1.15;;
70667;SDS011;58242;51.250;-1.118;2022-07-23T10:24:52;1.50;;;1.40;;
70667;SDS011;58242;51.250;-1.118;2022-07-23T10:41:13;1.95;;;1.45;;
70667;SDS011;58242;51.250;-1.118;2022-07-23T10:43:38;0.95;;;0.90;;
70667;SDS011;58242;51.250;-1.118;2022-07-23T10:54:42;1.75;;;1.20;;
70667;SDS011;58242;51.250;-1.118;2022-07-23T10:57:08;1.10;;;1.10;;
70667;SDS011;58242;51.250;-1.118;2022-07-23T11:02:34;0.93;;;0.90;;
70667;SDS011;58242;51.250;-1.118;2022-07-23T11:05:01;1.30;;;1.20;;
70667;SDS011;58242;51.250;-1.118;2022-07-23T11:07:31;1.00;;;1.00;;
70667;SDS011;58242;51.250;-1.118;2022-07-23T11:09:56;0.98;;;0.95;;
70667;SDS011;58242;51.250;-1.118;2022-07-23T11:20:16;1.38;;;1.08;;
70667;SDS011;58242;51.250;-1.118;2022-07-23T11:25:28;2.45;;;1.30;;
70667;SDS011;58242;51.250;-1.118;2022-07-23T11:28:07;1.73;;;1.63;;
70667;SDS011;58242;51.250;-1.118;2022-07-23T11:30:41;1.23;;;1.23;;
70667;SDS011;58242;51.250;-1.118;2022-07-23T11:35:36;1.13;;;1.13;;
70667;SDS011;58242;51.250;-1.118;2022-07-23T11:38:07;1.00;;;1.00;;
70667;SDS011;58242;51.250;-1.118;2022-07-23T11:40:38;1.48;;;1.38;;
70667;SDS011;58242;51.250;-1.118;2022-07-23T11:43:05;1.30;;;1.20;;
70667;SDS011;58242;51.250;-1.118;2022-07-23T11:48:04;0.95;;;0.90;;
70667;SDS011;58242;51.250;-1.118;2022-07-23T11:50:31;1.05;;;0.90;;
70667;SDS011;58242;51.250;-1.118;2022-07-23T11:52:56;1.08;;;1.02;;
70667;SDS011;58242;51.250;-1.118;2022-07-23T11:55:22;1.10;;;1.10;;
70667;SDS011;58242;51.250;-1.118;2022-07-23T11:57:49;1.17;;;1.10;;
70667;SDS011;58242;51.250;-1.118;2022-07-23T12:00:18;1.20;;;1.10;;
70667;SDS011;58242;51.250;-1.118;2022-07-23T12:02:46;1.10;;;1.10;;
70667;SDS011;58242;51.250;-1.118;2022-07-23T12:05:18;1.10;;;1.10;;
70667;SDS011;58242;51.250;-1.118;2022-07-23T12:07:48;1.23;;;1.13;;
70667;SDS011;58242;51.250;-1.118;2022-07-23T12:10:17;1.40;;;1.30;;
70667;SDS011;58242;51.250;-1.118;2022-07-23T12:15:10;1.42;;;1.30;;
70667;SDS011;58242;51.250;-1.118;2022-07-23T12:17:38;1.00;;;1.00;;
70667;SDS011;58242;51.250;-1.118;2022-07-23T12:20:06;1.50;;;1.20;;
70667;SDS011;58242;51.250;-1.118;2022-07-23T12:23:16;1.23;;;1.13;;
70667;SDS011;58242;51.250;-1.118;2022-07-23T12:25:24;0.95;;;0.95;;
70667;SDS011;58242;51.250;-1.118;2022-07-23T12:28:14;1.10;;;1.00;;
70667;SDS011;58242;51.250;-1.118;2022-07-23T12:30:45;1.10;;;0.90;;
70667;SDS011;58242;51.250;-1.118;2022-07-23T12:33:13;1.40;;;1.30;;
70667;SDS011;58242;51.250;-1.118;2022-07-23T12:35:44;1.00;;;1.00;;
70667;SDS011;58242;51.250;-1.118;2022-07-23T12:38:20;1.10;;;1.10;;
70667;SDS011;58242;51.250;-1.118;2022-07-23T12:45:46;0.95;;;0.95;;
70667;SDS011;58242;51.250;-1.118;2022-07-23T12:51:17;1.27;;;1.17;;
70667;SDS011;58242;51.250;-1.118;2022-07-23T12:53:51;1.25;;;1.10;;
70667;SDS011;58242;51.250;-1.118;2022-07-23T12:58:55;1.75;;;1.58;;
70667;SDS011;58242;51.250;-1.118;2022-07-23T13:03:55;1.88;;;1.55;;
70667;SDS011;58242;51.250;-1.118;2022-07-23T13:06:34;1.30;;;1.30;;
70667;SDS011;58242;51.250;-1.118;2022-07-23T13:09:02;1.35;;;1.25;;
70667;SDS011;58242;51.250;-1.118;2022-07-23T13:11:29;2.28;;;1.67;;
70667;SDS011;58242;51.250;-1.118;2022-07-23T13:13:54;1.42;;;1.40;;
70667;SDS011;58242;51.250;-1.118;2022-07-23T13:16:22;1.55;;;1.50;;
70667;SDS011;58242;51.250;-1.118;2022-07-23T13:18:47;3.47;;;1.70;;
70667;SDS011;58242;51.250;-1.118;2022-07-23T13:21:13;1.92;;;1.58;;
70667;SDS011;58242;51.250;-1.118;2022-07-23T13:23:38;1.90;;;1.80;;
70667;SDS011;58242;51.250;-1.118;2022-07-23T13:26:04;1.50;;;1.50;;
70667;SDS011;58242;51.250;-1.118;2022-07-23T13:28:29;1.85;;;1.75;;
70667;SDS011;58242;51.250;-1.118;2022-07-23T13:30:55;2.25;;;2.15;;
70667;SDS011;58242;51.250;-1.118;2022-07-23T13:33:22;1.60;;;1.60;;
70667;SDS011;58242;51.250;-1.118;2022-07-23T13:35:49;1.50;;;1.40;;
70667;SDS011;58242;51.250;-1.118;2022-07-23T13:38:16;1.60;;;1.50;;
70667;SDS011;58242;51.250;-1.118;2022-07-23T13:40:43;2.15;;;1.58;;
70667;SDS011;58242;51.250;-1.118;2022-07-23T13:45:36;2.00;;;1.85;;
70667;SDS011;58242;51.250;-1.118;2022-07-23T13:48:03;1.50;;;1.40;;
70667;SDS011;58242;51.250;-1.118;2022-07-23T13:50:29;1.80;;;1.70;;
70667;SDS011;58242;51.250;-1.118;2022-07-23T13:52:54;1.73;;;1.63;;
70667;SDS011;58242;51.250;-1.118;2022-07-23T13:55:20;1.60;;;1.50;;
70667;SDS011;58242;51.250;-1.118;2022-07-23T13:57:45;2.15;;;2.00;;
70667;SDS011;58242;51.250;-1.118;2022-07-23T14:00:11;1.80;;;1.65;;
70667;SDS011;58242;51.250;-1.118;2022-07-23T14:02:38;1.58;;;1.58;;
70667;SDS011;58242;51.250;-1.118;2022-07-23T14:05:05;1.42;;;1.42;;
70667;SDS011;58242;51.250;-1.118;2022-07-23T14:07:33;1.85;;;1.60;;
70667;SDS011;58242;51.250;-1.118;2022-07-23T14:09:59;2.45;;;1.60;;
70667;SDS011;58242;51.250;-1.118;2022-07-23T14:12:25;1.80;;;1.70;;
70667;SDS011;58242;51.250;-1.118;2022-07-23T14:14:50;1.70;;;1.60;;
70667;SDS011;58242;51.250;-1.118;2022-07-23T14:17:16;1.83;;;1.70;;
70667;SDS011;58242;51.250;-1.118;2022-07-23T14:19:41;1.92;;;1.83;;
70667;SDS011;58242;51.250;-1.118;2022-07-23T14:22:07;1.60;;;1.50;;
70667;SDS011;58242;51.250;-1.118;2022-07-23T14:24:32;1.60;;;1.50;;
70667;SDS011;58242;51.250;-1.118;2022-07-23T14:26:59;1.80;;;1.70;;
70667;SDS011;58242;51.250;-1.118;2022-07-23T14:29:25;1.70;;;1.60;;
70667;SDS011;58242;51.250;-1.118;2022-07-23T14:31:50;1.50;;;1.50;;
70667;SDS011;58242;51.250;-1.118;2022-07-23T14:34:16;1.40;;;1.38;;
70667;SDS011;58242;51.250;-1.118;2022-07-23T14:36:42;1.63;;;1.58;;
70667;SDS011;58242;51.250;-1.118;2022-07-23T14:39:08;1.92;;;1.80;;
70667;SDS011;58242;51.250;-1.118;2022-07-23T14:41:33;1.75;;;1.65;;
70667;SDS011;58242;51.250;-1.118;2022-07-23T14:44:00;2.45;;;1.60;;
70667;SDS011;58242;51.250;-1.118;2022-07-23T14:46:25;4.43;;;1.58;;
70667;SDS011;58242;51.250;-1.118;2022-07-23T14:48:51;2.25;;;1.70;;
70667;SDS011;58242;51.250;-1.118;2022-07-23T14:51:17;2.67;;;1.33;;
70667;SDS011;58242;51.250;-1.118;2022-07-23T14:53:42;1.80;;;1.70;;
70667;SDS011;58242;51.250;-1.118;2022-07-23T14:56:08;2.53;;;1.95;;
70667;SDS011;58242;51.250;-1.118;2022-07-23T14:58:33;1.70;;;1.60;;
70667;SDS011;58242;51.250;-1.118;2022-07-23T15:00:59;1.50;;;1.40;;
70667;SDS011;58242;51.250;-1.118;2022-07-23T15:03:24;1.42;;;1.42;;
70667;SDS011;58242;51.250;-1.118;2022-07-23T15:05:49;1.63;;;1.63;;
70667;SDS011;58242;51.250;-1.118;2022-07-23T15:08:15;1.50;;;1.50;;
70667;SDS011;58242;51.250;-1.118;2022-07-23T15:10:42;2.45;;;1.77;;
70667;SDS011;58242;51.250;-1.118;2022-07-23T15:13:07;1.85;;;1.75;;
70667;SDS011;58242;51.250;-1.118;2022-07-23T15:15:32;2.20;;;1.85;;
70667;SDS011;58242;51.250;-1.118;2022-07-23T15:17:58;2.35;;;1.83;;
70667;SDS011;58242;51.250;-1.118;2022-07-23T15:20:23;2.30;;;2.08;;
70667;SDS011;58242;51.250;-1.118;2022-07-23T15:22:49;1.70;;;1.60;;
70667;SDS011;58242;51.250;-1.118;2022-07-23T15:25:15;1.83;;;1.70;;
70667;SDS011;58242;51.250;-1.118;2022-07-23T15:27:40;1.75;;;1.67;;
70667;SDS011;58242;51.250;-1.118;2022-07-23T15:30:06;1.95;;;1.85;;
70667;SDS011;58242;51.250;-1.118;2022-07-23T15:32:32;1.85;;;1.58;;
70667;SDS011;58242;51.250;-1.118;2022-07-23T15:34:57;1.90;;;1.80;;
70667;SDS011;58242;51.250;-1.118;2022-07-23T15:37:23;3.83;;;2.40;;
70667;SDS011;58242;51.250;-1.118;2022-07-23T15:39:49;1.80;;;1.70;;
70667;SDS011;58242;51.250;-1.118;2022-07-23T15:42:15;2.25;;;1.90;;
70667;SDS011;58242;51.250;-1.118;2022-07-23T15:44:41;2.30;;;2.10;;